createdAt,value
2022-11-06T00:01:32.315Z,0.40
2022-11-06T00:03:59.332Z,1.50
2022-11-06T00:06:44.912Z,0.35
2022-11-06T00:09:13.374Z,0.60
2022-11-06T00:11:41.271Z,0.95
2022-11-06T00:14:08.563Z,0.68
2022-11-06T00:16:38.565Z,0.73
2022-11-06T00:19:06.486Z,0.40
2022-11-06T00:21:33.527Z,0.60
2022-11-06T00:24:01.934Z,0.47
2022-11-06T00:26:30.491Z,0.60
2022-11-06T00:28:57.809Z,1.27
2022-11-06T00:31:31.795Z,0.40
2022-11-06T00:34:00.118Z,0.50
2022-11-06T00:36:30.275Z,0.75
2022-11-06T00:38:58.277Z,0.57
2022-11-06T00:41:26.096Z,1.10
2022-11-06T00:43:58.854Z,0.52
2022-11-06T00:46:26.549Z,0.88
2022-11-06T00:48:54.822Z,0.43
2022-11-06T00:51:25.508Z,0.30
2022-11-06T00:54:01.040Z,0.75
2022-11-06T00:56:28.836Z,0.30
2022-11-06T00:58:56.321Z,0.43
2022-11-06T01:01:24.486Z,0.50
2022-11-06T01:04:07.334Z,0.88
2022-11-06T01:09:05.900Z,0.35
2022-11-06T01:11:59.353Z,0.70
2022-11-06T01:14:22.973Z,0.40
2022-11-06T01:16:50.697Z,0.68
2022-11-06T01:19:19.911Z,0.70
2022-11-06T01:21:48.738Z,0.40
2022-11-06T01:24:21.621Z,0.57
2022-11-06T01:27:05.258Z,0.90
2022-11-06T01:29:35.916Z,1.48
2022-11-06T01:32:02.925Z,0.63
2022-11-06T01:34:29.954Z,0.43
2022-11-06T01:36:56.752Z,0.52
2022-11-06T01:39:23.500Z,0.50
2022-11-06T01:41:53.472Z,0.43
2022-11-06T01:44:35.597Z,0.70
2022-11-06T01:47:05.621Z,0.90
2022-11-06T01:49:37.580Z,1.15
2022-11-06T01:52:10.199Z,0.85
2022-11-06T01:57:05.911Z,0.45
2022-11-06T01:59:37.584Z,1.33
2022-11-06T02:02:04.871Z,0.50
2022-11-06T02:04:51.977Z,0.50
2022-11-06T02:07:19.965Z,0.80
2022-11-06T02:09:47.041Z,0.50
2022-11-06T02:12:38.611Z,0.57
2022-11-06T02:15:32.210Z,0.75
2022-11-06T02:18:15.728Z,1.52
2022-11-06T02:21:06.859Z,0.75
2022-11-06T02:23:39.453Z,0.80
2022-11-06T02:28:57.954Z,0.80
2022-11-06T02:31:30.340Z,0.90
2022-11-06T02:34:02.788Z,1.23
2022-11-06T17:06:56.312Z,1.30
2022-11-06T17:09:23.325Z,1.30
2022-11-06T17:11:54.495Z,1.75
2022-11-06T17:14:24.939Z,2.05
2022-11-06T17:16:54.602Z,2.40
2022-11-06T17:19:22.404Z,1.60
2022-11-06T17:21:50.921Z,1.85
2022-11-06T17:27:06.759Z,1.52
2022-11-06T17:29:36.382Z,1.65
2022-11-06T17:32:04.066Z,1.90
2022-11-06T17:34:30.876Z,1.60
2022-11-06T17:36:57.848Z,1.10
2022-11-06T17:39:24.676Z,1.33
2022-11-06T17:41:51.851Z,2.03
2022-11-06T17:44:18.711Z,1.92
2022-11-06T17:46:47.101Z,2.10
2022-11-06T17:49:17.880Z,1.50
2022-11-06T17:52:01.421Z,2.33
2022-11-06T17:54:32.318Z,1.77
2022-11-06T17:57:01.932Z,2.28
2022-11-06T17:59:29.086Z,1.42
2022-11-06T18:01:56.288Z,1.85
2022-11-06T18:04:25.179Z,2.78
2022-11-06T18:06:53.154Z,1.45
2022-11-06T18:09:21.365Z,2.45
2022-11-06T18:11:53.201Z,2.13
2022-11-06T18:14:21.075Z,2.03
2022-11-06T18:16:48.828Z,2.30
2022-11-06T18:19:18.549Z,1.60
2022-11-06T18:21:45.532Z,1.73
2022-11-06T18:24:12.770Z,1.35
2022-11-06T18:26:40.109Z,2.25
2022-11-06T18:29:08.313Z,1.80
2022-11-06T18:31:35.343Z,2.20
2022-11-06T18:34:02.613Z,2.28
2022-11-06T18:36:29.533Z,2.72
2022-11-06T18:38:56.411Z,2.78
2022-11-06T18:41:23.319Z,2.88
2022-11-06T18:43:54.805Z,3.65
2022-11-06T18:46:21.647Z,3.42
2022-11-06T18:48:48.442Z,2.72
2022-11-06T18:51:33.895Z,2.67
2022-11-06T18:54:07.974Z,3.17
2022-11-06T18:59:04.318Z,3.35
2022-11-06T19:01:31.324Z,2.92
2022-11-06T19:03:58.211Z,2.60
2022-11-06T19:06:25.221Z,2.60
2022-11-06T19:08:52.203Z,1.70
2022-11-06T19:11:19.375Z,3.50
2022-11-06T19:13:48.628Z,2.30
2022-11-06T19:16:18.564Z,2.75
2022-11-06T19:18:45.995Z,2.38
2022-11-06T19:21:13.453Z,2.38
2022-11-06T19:23:42.875Z,2.42
2022-11-06T19:29:00.231Z,2.80
2022-11-06T19:31:30.694Z,2.55
2022-11-06T19:34:02.280Z,2.85
2022-11-06T19:36:33.876Z,2.42
2022-11-06T19:39:01.328Z,2.38
2022-11-06T19:41:29.488Z,3.53
2022-11-06T19:43:56.339Z,2.90
2022-11-06T19:46:27.260Z,3.50
2022-11-06T19:48:57.808Z,2.42
2022-11-06T19:51:25.869Z,2.90
2022-11-06T19:53:56.005Z,2.55
2022-11-06T19:56:23.518Z,2.90
2022-11-06T19:58:51.235Z,2.65
2022-11-06T20:01:19.112Z,2.45
2022-11-06T20:03:46.369Z,3.58
2022-11-06T20:06:14.108Z,2.38
2022-11-06T20:08:41.132Z,2.10
2022-11-06T20:11:12.417Z,3.00
2022-11-06T20:13:40.261Z,3.03
2022-11-06T20:16:09.555Z,2.72
2022-11-06T20:18:36.541Z,2.17
2022-11-06T20:21:06.282Z,2.80
2022-11-06T20:23:33.416Z,2.75
2022-11-06T20:26:00.613Z,2.30
2022-11-06T20:28:27.661Z,3.22
2022-11-06T20:30:54.622Z,3.50
2022-11-06T20:33:21.513Z,2.88
2022-11-06T20:35:48.376Z,2.22
2022-11-06T20:38:15.323Z,3.20
2022-11-06T20:40:42.803Z,3.13
2022-11-06T20:43:10.210Z,3.40
2022-11-06T20:45:37.211Z,3.67
2022-11-06T20:48:08.136Z,2.35
2022-11-06T20:50:34.982Z,3.47
2022-11-06T20:53:01.892Z,3.25
2022-11-06T20:55:29.148Z,2.53
2022-11-06T20:57:56.012Z,3.80
2022-11-06T21:00:23.036Z,3.33
2022-11-06T21:02:50.121Z,2.65
2022-11-06T21:05:17.240Z,2.90
2022-11-06T21:07:44.050Z,3.42
2022-11-06T21:10:12.290Z,2.53
2022-11-06T21:12:39.156Z,4.07
2022-11-06T21:15:06.638Z,2.78
2022-11-06T21:17:33.590Z,3.90
2022-11-06T21:20:00.399Z,3.20
2022-11-06T21:22:27.331Z,2.13
2022-11-06T21:24:54.143Z,2.00
2022-11-06T21:27:20.969Z,2.38
2022-11-06T21:29:47.959Z,2.63
2022-11-06T21:32:15.045Z,2.65
2022-11-06T21:34:41.948Z,3.22
2022-11-06T21:37:08.962Z,1.83
2022-11-06T21:39:36.700Z,1.95
2022-11-06T21:42:06.144Z,1.95
2022-11-06T21:44:33.002Z,2.33
2022-11-06T21:46:59.816Z,1.77
2022-11-06T21:49:26.641Z,2.47
2022-11-06T21:51:54.216Z,1.60
2022-11-06T21:54:39.456Z,3.10
2022-11-06T21:57:06.272Z,2.58
2022-11-06T21:59:36.359Z,2.03
2022-11-06T22:02:07.290Z,2.83
2022-11-06T22:04:34.169Z,2.00
2022-11-06T22:07:00.958Z,1.35
2022-11-06T22:09:27.828Z,2.30
2022-11-06T22:11:54.649Z,4.57
2022-11-06T22:14:21.633Z,2.60
2022-11-06T22:16:48.518Z,2.72
2022-11-06T22:19:17.607Z,2.78
2022-11-06T22:21:44.534Z,2.78
2022-11-06T22:24:13.112Z,3.00
2022-11-06T22:26:40.526Z,2.22
2022-11-06T22:29:12.744Z,2.35
2022-11-06T22:31:39.867Z,2.83
2022-11-06T22:34:06.844Z,2.47
2022-11-06T22:36:33.737Z,2.05
2022-11-06T22:39:04.607Z,1.95
2022-11-06T22:41:31.431Z,2.65
2022-11-06T22:43:59.592Z,3.10
2022-11-06T22:46:27.521Z,2.50
2022-11-06T22:48:57.451Z,2.78
2022-11-06T22:51:29.741Z,1.98
2022-11-06T22:53:57.365Z,3.35
2022-11-06T22:56:25.916Z,2.85
2022-11-06T22:58:57.675Z,2.55
2022-11-06T23:01:26.744Z,3.05
2022-11-06T23:03:57.847Z,3.33
2022-11-06T23:06:26.153Z,3.30
2022-11-06T23:08:53.153Z,3.10
2022-11-06T23:11:20.980Z,4.30
2022-11-06T23:13:47.865Z,4.00
2022-11-06T23:16:17.747Z,4.63
2022-11-06T23:18:44.621Z,3.22
2022-11-06T23:21:16.159Z,3.85
2022-11-06T23:23:44.064Z,3.67
2022-11-06T23:26:12.145Z,2.50
2022-11-06T23:28:38.947Z,2.83
2022-11-06T23:31:10.730Z,3.10
2022-11-06T23:33:37.998Z,2.77
2022-11-06T23:36:15.834Z,3.63
2022-11-06T23:38:43.930Z,3.90
2022-11-06T23:41:32.209Z,3.50
2022-11-06T23:43:59.538Z,3.65
2022-11-06T23:46:31.891Z,3.67
2022-11-06T23:48:59.441Z,4.95
2022-11-06T23:51:26.713Z,3.30
2022-11-06T23:53:54.863Z,3.92
2022-11-06T23:56:21.724Z,3.45
2022-11-06T23:58:48.572Z,3.42
